sensor_id;sensor_type;location;lat;lon;timestamp;P1;durP1;ratioP1;P2;durP2;ratioP2
46377;SDS011;32083;47.360;9.650;2024-03-17T05:02:50;7.65;;;2.55;;
46377;SDS011;32083;47.360;9.650;2024-03-17T05:05:16;3.33;;;2.35;;
46377;SDS011;32083;47.360;9.650;2024-03-17T05:07:42;3.90;;;2.00;;
46377;SDS011;32083;47.360;9.650;2024-03-17T05:10:08;3.78;;;1.90;;
46377;SDS011;32083;47.360;9.650;2024-03-17T05:12:35;2.45;;;1.73;;
46377;SDS011;32083;47.360;9.650;2024-03-17T05:15:01;4.15;;;2.50;;
46377;SDS011;32083;47.360;9.650;2024-03-17T05:17:29;4.10;;;2.10;;
46377;SDS011;32083;47.360;9.650;2024-03-17T05:19:55;2.55;;;2.28;;
46377;SDS011;32083;47.360;9.650;2024-03-17T05:22:22;5.78;;;2.38;;
46377;SDS011;32083;47.360;9.650;2024-03-17T05:24:48;3.33;;;2.60;;
46377;SDS011;32083;47.360;9.650;2024-03-17T05:27:14;4.35;;;2.40;;
46377;SDS011;32083;47.360;9.650;2024-03-17T05:29:40;3.83;;;2.55;;
46377;SDS011;32083;47.360;9.650;2024-03-17T05:32:06;3.30;;;2.60;;
46377;SDS011;32083;47.360;9.650;2024-03-17T05:34:32;5.22;;;3.35;;
46377;SDS011;32083;47.360;9.650;2024-03-17T05:36:59;3.75;;;2.78;;
46377;SDS011;32083;47.360;9.650;2024-03-17T05:39:27;4.15;;;3.05;;
46377;SDS011;32083;47.360;9.650;2024-03-17T05:41:53;3.45;;;2.28;;
46377;SDS011;32083;47.360;9.650;2024-03-17T05:44:19;3.90;;;2.30;;
46377;SDS011;32083;47.360;9.650;2024-03-17T05:46:45;5.00;;;2.72;;
46377;SDS011;32083;47.360;9.650;2024-03-17T05:49:11;3.40;;;2.92;;
46377;SDS011;32083;47.360;9.650;2024-03-17T05:51:37;5.28;;;4.78;;
46377;SDS011;32083;47.360;9.650;2024-03-17T05:54:03;5.00;;;3.92;;
46377;SDS011;32083;47.360;9.650;2024-03-17T05:56:29;5.47;;;3.70;;
46377;SDS011;32083;47.360;9.650;2024-03-17T05:58:55;5.07;;;3.22;;
46377;SDS011;32083;47.360;9.650;2024-03-17T06:01:21;3.83;;;3.00;;
46377;SDS011;32083;47.360;9.650;2024-03-17T06:03:47;4.80;;;3.53;;
46377;SDS011;32083;47.360;9.650;2024-03-17T06:06:13;4.00;;;3.30;;
46377;SDS011;32083;47.360;9.650;2024-03-17T06:08:39;7.07;;;3.40;;
46377;SDS011;32083;47.360;9.650;2024-03-17T06:11:06;6.32;;;3.90;;
46377;SDS011;32083;47.360;9.650;2024-03-17T06:13:33;5.95;;;3.50;;
46377;SDS011;32083;47.360;9.650;2024-03-17T06:16:01;4.10;;;2.95;;
46377;SDS011;32083;47.360;9.650;2024-03-17T06:18:28;6.45;;;3.85;;
46377;SDS011;32083;47.360;9.650;2024-03-17T06:20:54;4.50;;;3.50;;
46377;SDS011;32083;47.360;9.650;2024-03-17T06:23:23;4.00;;;3.20;;
46377;SDS011;32083;47.360;9.650;2024-03-17T06:25:52;4.38;;;3.33;;
46377;SDS011;32083;47.360;9.650;2024-03-17T06:28:19;5.70;;;4.15;;
46377;SDS011;32083;47.360;9.650;2024-03-17T06:30:46;5.32;;;3.38;;
46377;SDS011;32083;47.360;9.650;2024-03-17T06:33:26;7.70;;;4.15;;
46377;SDS011;32083;47.360;9.650;2024-03-17T06:35:57;6.07;;;3.80;;
46377;SDS011;32083;47.360;9.650;2024-03-17T06:38:23;4.60;;;3.58;;
46377;SDS011;32083;47.360;9.650;2024-03-17T06:40:50;4.00;;;3.28;;
46377;SDS011;32083;47.360;9.650;2024-03-17T06:43:17;5.10;;;3.30;;
46377;SDS011;32083;47.360;9.650;2024-03-17T06:45:43;4.25;;;3.40;;
46377;SDS011;32083;47.360;9.650;2024-03-17T06:48:18;3.22;;;2.92;;
46377;SDS011;32083;47.360;9.650;2024-03-17T06:50:44;5.38;;;2.95;;
46377;SDS011;32083;47.360;9.650;2024-03-17T06:53:10;3.08;;;2.70;;
46377;SDS011;32083;47.360;9.650;2024-03-17T06:55:36;5.10;;;3.05;;
46377;SDS011;32083;47.360;9.650;2024-03-17T06:58:02;7.50;;;4.50;;
46377;SDS011;32083;47.360;9.650;2024-03-17T07:00:28;6.82;;;4.20;;
46377;SDS011;32083;47.360;9.650;2024-03-17T07:02:54;4.40;;;3.50;;
46377;SDS011;32083;47.360;9.650;2024-03-17T07:05:20;5.72;;;3.78;;
46377;SDS011;32083;47.360;9.650;2024-03-17T07:07:46;4.10;;;3.40;;
46377;SDS011;32083;47.360;9.650;2024-03-17T07:10:13;4.72;;;3.55;;
46377;SDS011;32083;47.360;9.650;2024-03-17T07:12:40;4.57;;;3.15;;
46377;SDS011;32083;47.360;9.650;2024-03-17T07:15:07;4.63;;;3.70;;
46377;SDS011;32083;47.360;9.650;2024-03-17T07:17:33;6.47;;;4.22;;
46377;SDS011;32083;47.360;9.650;2024-03-17T07:20:00;5.88;;;4.50;;
46377;SDS011;32083;47.360;9.650;2024-03-17T07:22:26;5.13;;;4.63;;
46377;SDS011;32083;47.360;9.650;2024-03-17T07:24:53;4.63;;;4.22;;
46377;SDS011;32083;47.360;9.650;2024-03-17T07:27:29;5.57;;;4.22;;
46377;SDS011;32083;47.360;9.650;2024-03-17T07:29:56;6.13;;;4.72;;
46377;SDS011;32083;47.360;9.650;2024-03-17T07:32:22;6.10;;;4.38;;
46377;SDS011;32083;47.360;9.650;2024-03-17T07:34:48;5.95;;;5.10;;
46377;SDS011;32083;47.360;9.650;2024-03-17T07:37:17;6.57;;;5.07;;
46377;SDS011;32083;47.360;9.650;2024-03-17T07:39:43;5.97;;;4.22;;
46377;SDS011;32083;47.360;9.650;2024-03-17T07:42:10;4.68;;;3.72;;
46377;SDS011;32083;47.360;9.650;2024-03-17T07:44:38;5.28;;;3.92;;
46377;SDS011;32083;47.360;9.650;2024-03-17T07:47:04;6.88;;;3.08;;
46377;SDS011;32083;47.360;9.650;2024-03-17T07:49:31;4.10;;;3.08;;
46377;SDS011;32083;47.360;9.650;2024-03-17T07:51:57;4.07;;;2.05;;
46377;SDS011;32083;47.360;9.650;2024-03-17T07:54:24;3.15;;;2.38;;
46377;SDS011;32083;47.360;9.650;2024-03-17T07:56:51;3.55;;;1.13;;
46377;SDS011;32083;47.360;9.650;2024-03-17T07:59:18;1.60;;;0.57;;
46377;SDS011;32083;47.360;9.650;2024-03-17T08:01:44;1.88;;;0.80;;
46377;SDS011;32083;47.360;9.650;2024-03-17T08:04:11;3.85;;;2.00;;
46377;SDS011;32083;47.360;9.650;2024-03-17T08:06:40;4.90;;;3.05;;
46377;SDS011;32083;47.360;9.650;2024-03-17T08:09:09;3.60;;;2.78;;
46377;SDS011;32083;47.360;9.650;2024-03-17T08:11:35;4.53;;;3.13;;
46377;SDS011;32083;47.360;9.650;2024-03-17T08:14:02;5.20;;;2.72;;
46377;SDS011;32083;47.360;9.650;2024-03-17T08:16:28;4.00;;;2.28;;
46377;SDS011;32083;47.360;9.650;2024-03-17T08:18:55;2.80;;;1.85;;
46377;SDS011;32083;47.360;9.650;2024-03-17T08:21:21;3.25;;;1.95;;
46377;SDS011;32083;47.360;9.650;2024-03-17T08:23:47;3.55;;;2.38;;
46377;SDS011;32083;47.360;9.650;2024-03-17T08:26:13;4.38;;;2.08;;
46377;SDS011;32083;47.360;9.650;2024-03-17T08:28:40;2.33;;;2.03;;
46377;SDS011;32083;47.360;9.650;2024-03-17T08:31:06;2.25;;;1.55;;
46377;SDS011;32083;47.360;9.650;2024-03-17T08:33:32;3.75;;;2.05;;
46377;SDS011;32083;47.360;9.650;2024-03-17T08:36:05;6.10;;;2.38;;
46377;SDS011;32083;47.360;9.650;2024-03-17T08:38:35;2.25;;;1.80;;
46377;SDS011;32083;47.360;9.650;2024-03-17T08:41:08;2.83;;;2.03;;
46377;SDS011;32083;47.360;9.650;2024-03-17T08:46:05;1.77;;;1.60;;
46377;SDS011;32083;47.360;9.650;2024-03-17T08:48:34;2.83;;;1.83;;
46377;SDS011;32083;47.360;9.650;2024-03-17T08:51:02;4.50;;;1.98;;
46377;SDS011;32083;47.360;9.650;2024-03-17T08:53:29;2.83;;;1.30;;
46377;SDS011;32083;47.360;9.650;2024-03-17T08:55:56;2.45;;;1.23;;
46377;SDS011;32083;47.360;9.650;2024-03-17T08:58:23;2.05;;;1.27;;
46377;SDS011;32083;47.360;9.650;2024-03-17T09:00:49;3.22;;;1.77;;
46377;SDS011;32083;47.360;9.650;2024-03-17T09:03:16;2.90;;;1.63;;
46377;SDS011;32083;47.360;9.650;2024-03-17T09:05:43;4.72;;;1.92;;
46377;SDS011;32083;47.360;9.650;2024-03-17T09:08:20;2.65;;;1.65;;
46377;SDS011;32083;47.360;9.650;2024-03-17T09:10:49;2.40;;;1.60;;
46377;SDS011;32083;47.360;9.650;2024-03-17T09:13:17;2.05;;;1.42;;
46377;SDS011;32083;47.360;9.650;2024-03-17T09:15:58;2.60;;;1.65;;
46377;SDS011;32083;47.360;9.650;2024-03-17T09:18:29;2.90;;;2.20;;
46377;SDS011;32083;47.360;9.650;2024-03-17T09:23:22;3.42;;;1.25;;
46377;SDS011;32083;47.360;9.650;2024-03-17T09:25:59;2.15;;;1.30;;
46377;SDS011;32083;47.360;9.650;2024-03-17T09:28:28;6.03;;;1.58;;
46377;SDS011;32083;47.360;9.650;2024-03-17T09:30:55;4.88;;;1.80;;
46377;SDS011;32083;47.360;9.650;2024-03-17T09:33:22;4.32;;;2.88;;
46377;SDS011;32083;47.360;9.650;2024-03-17T09:35:56;5.53;;;2.38;;
46377;SDS011;32083;47.360;9.650;2024-03-17T09:38:23;4.40;;;1.85;;
46377;SDS011;32083;47.360;9.650;2024-03-17T09:40:50;9.75;;;1.70;;
46377;SDS011;32083;47.360;9.650;2024-03-17T09:43:21;2.05;;;1.50;;
46377;SDS011;32083;47.360;9.650;2024-03-17T09:45:48;4.10;;;1.80;;
46377;SDS011;32083;47.360;9.650;2024-03-17T09:48:15;1.75;;;1.27;;
46377;SDS011;32083;47.360;9.650;2024-03-17T09:50:56;2.25;;;1.30;;
46377;SDS011;32083;47.360;9.650;2024-03-17T09:53:30;3.80;;;1.48;;
46377;SDS011;32083;47.360;9.650;2024-03-17T09:55:59;1.98;;;1.30;;
46377;SDS011;32083;47.360;9.650;2024-03-17T09:58:36;3.10;;;1.60;;
46377;SDS011;32083;47.360;9.650;2024-03-17T10:01:02;2.05;;;1.23;;
46377;SDS011;32083;47.360;9.650;2024-03-17T10:03:45;1.60;;;0.98;;
46377;SDS011;32083;47.360;9.650;2024-03-17T10:06:21;1.45;;;1.05;;
46377;SDS011;32083;47.360;9.650;2024-03-17T10:08:49;2.78;;;1.20;;
46377;SDS011;32083;47.360;9.650;2024-03-17T10:11:19;2.78;;;1.35;;
46377;SDS011;32083;47.360;9.650;2024-03-17T10:13:47;2.83;;;1.30;;
46377;SDS011;32083;47.360;9.650;2024-03-17T10:16:25;1.83;;;1.10;;
46377;SDS011;32083;47.360;9.650;2024-03-17T10:19:10;2.45;;;1.40;;
46377;SDS011;32083;47.360;9.650;2024-03-17T10:21:44;2.35;;;1.50;;
46377;SDS011;32083;47.360;9.650;2024-03-17T10:26:50;2.63;;;1.92;;
46377;SDS011;32083;47.360;9.650;2024-03-17T10:29:22;1.58;;;1.15;;
46377;SDS011;32083;47.360;9.650;2024-03-17T10:32:06;2.58;;;1.33;;
46377;SDS011;32083;47.360;9.650;2024-03-17T10:34:39;1.88;;;1.38;;
46377;SDS011;32083;47.360;9.650;2024-03-17T10:37:15;2.58;;;1.25;;
46377;SDS011;32083;47.360;9.650;2024-03-17T10:39:45;2.63;;;1.48;;
46377;SDS011;32083;47.360;9.650;2024-03-17T10:42:15;1.80;;;1.02;;
46377;SDS011;32083;47.360;9.650;2024-03-17T10:44:53;1.58;;;0.65;;
46377;SDS011;32083;47.360;9.650;2024-03-17T10:49:49;4.20;;;1.02;;
46377;SDS011;32083;47.360;9.650;2024-03-17T10:52:17;1.90;;;0.98;;
46377;SDS011;32083;47.360;9.650;2024-03-17T10:54:51;1.30;;;0.70;;
46377;SDS011;32083;47.360;9.650;2024-03-17T11:00:00;1.50;;;0.82;;
46377;SDS011;32083;47.360;9.650;2024-03-17T11:02:37;2.05;;;1.20;;
46377;SDS011;32083;47.360;9.650;2024-03-17T11:05:21;2.38;;;1.10;;
46377;SDS011;32083;47.360;9.650;2024-03-17T11:08:00;1.60;;;1.40;;
46377;SDS011;32083;47.360;9.650;2024-03-17T11:10:28;2.33;;;1.40;;
46377;SDS011;32083;47.360;9.650;2024-03-17T11:12:57;1.67;;;1.10;;
46377;SDS011;32083;47.360;9.650;2024-03-17T11:17:54;2.38;;;1.02;;
46377;SDS011;32083;47.360;9.650;2024-03-17T11:20:32;1.70;;;1.08;;
46377;SDS011;32083;47.360;9.650;2024-03-17T11:22:59;3.17;;;1.15;;
46377;SDS011;32083;47.360;9.650;2024-03-17T11:28:08;2.05;;;1.05;;
46377;SDS011;32083;47.360;9.650;2024-03-17T11:30:56;2.33;;;1.00;;
46377;SDS011;32083;47.360;9.650;2024-03-17T11:44:15;2.55;;;1.10;;
46377;SDS011;32083;47.360;9.650;2024-03-17T11:46:57;3.38;;;1.00;;
46377;SDS011;32083;47.360;9.650;2024-03-17T11:51:51;1.65;;;0.70;;
46377;SDS011;32083;47.360;9.650;2024-03-17T11:54:20;2.42;;;0.77;;
46377;SDS011;32083;47.360;9.650;2024-03-17T11:56:49;12.10;;;1.30;;
46377;SDS011;32083;47.360;9.650;2024-03-17T11:59:17;1.33;;;0.98;;
46377;SDS011;32083;47.360;9.650;2024-03-17T12:01:48;1.70;;;1.30;;
46377;SDS011;32083;47.360;9.650;2024-03-17T12:04:15;2.10;;;1.30;;
46377;SDS011;32083;47.360;9.650;2024-03-17T12:06:44;5.68;;;2.80;;
46377;SDS011;32083;47.360;9.650;2024-03-17T12:09:17;4.53;;;2.05;;
46377;SDS011;32083;47.360;9.650;2024-03-17T12:11:47;2.67;;;2.03;;
46377;SDS011;32083;47.360;9.650;2024-03-17T12:16:54;4.32;;;2.20;;
46377;SDS011;32083;47.360;9.650;2024-03-17T12:19:28;2.63;;;2.22;;
46377;SDS011;32083;47.360;9.650;2024-03-17T12:21:55;5.57;;;2.30;;
46377;SDS011;32083;47.360;9.650;2024-03-17T12:24:29;4.07;;;2.20;;
46377;SDS011;32083;47.360;9.650;2024-03-17T12:26:56;2.20;;;1.15;;
46377;SDS011;32083;47.360;9.650;2024-03-17T12:32:06;4.22;;;1.98;;
46377;SDS011;32083;47.360;9.650;2024-03-17T12:34:36;3.95;;;1.80;;
46377;SDS011;32083;47.360;9.650;2024-03-17T12:37:03;5.43;;;1.88;;
46377;SDS011;32083;47.360;9.650;2024-03-17T12:39:30;3.25;;;1.67;;
46377;SDS011;32083;47.360;9.650;2024-03-17T12:44:31;5.28;;;2.58;;
46377;SDS011;32083;47.360;9.650;2024-03-17T12:46:59;3.30;;;1.92;;
46377;SDS011;32083;47.360;9.650;2024-03-17T12:49:26;5.28;;;1.95;;
46377;SDS011;32083;47.360;9.650;2024-03-17T12:51:56;5.32;;;1.80;;
46377;SDS011;32083;47.360;9.650;2024-03-17T12:54:24;4.13;;;2.22;;
46377;SDS011;32083;47.360;9.650;2024-03-17T12:56:52;5.28;;;2.63;;
46377;SDS011;32083;47.360;9.650;2024-03-17T12:59:51;4.53;;;2.15;;
46377;SDS011;32083;47.360;9.650;2024-03-17T13:02:42;5.70;;;1.70;;
46377;SDS011;32083;47.360;9.650;2024-03-17T13:05:16;3.95;;;1.88;;
46377;SDS011;32083;47.360;9.650;2024-03-17T13:07:44;3.33;;;1.95;;
46377;SDS011;32083;47.360;9.650;2024-03-17T13:10:13;4.03;;;1.75;;
46377;SDS011;32083;47.360;9.650;2024-03-17T13:12:43;4.35;;;2.00;;
46377;SDS011;32083;47.360;9.650;2024-03-17T13:15:14;5.10;;;2.10;;
46377;SDS011;32083;47.360;9.650;2024-03-17T13:17:44;4.85;;;2.03;;
46377;SDS011;32083;47.360;9.650;2024-03-17T13:20:14;2.35;;;1.65;;
46377;SDS011;32083;47.360;9.650;2024-03-17T13:22:41;3.40;;;1.58;;
46377;SDS011;32083;47.360;9.650;2024-03-17T13:25:13;4.60;;;2.58;;
46377;SDS011;32083;47.360;9.650;2024-03-17T13:27:44;3.97;;;2.13;;
46377;SDS011;32083;47.360;9.650;2024-03-17T13:30:14;7.10;;;2.92;;
46377;SDS011;32083;47.360;9.650;2024-03-17T13:32:41;4.93;;;2.13;;
46377;SDS011;32083;47.360;9.650;2024-03-17T13:37:44;5.82;;;2.35;;
46377;SDS011;32083;47.360;9.650;2024-03-17T13:40:13;5.10;;;2.50;;
46377;SDS011;32083;47.360;9.650;2024-03-17T13:42:47;5.03;;;1.95;;
46377;SDS011;32083;47.360;9.650;2024-03-17T13:45:15;4.80;;;2.10;;
46377;SDS011;32083;47.360;9.650;2024-03-17T13:47:45;5.50;;;2.53;;
46377;SDS011;32083;47.360;9.650;2024-03-17T13:50:22;4.28;;;2.17;;
46377;SDS011;32083;47.360;9.650;2024-03-17T13:52:48;4.63;;;2.45;;
46377;SDS011;32083;47.360;9.650;2024-03-17T13:55:16;4.93;;;2.85;;
46377;SDS011;32083;47.360;9.650;2024-03-17T13:57:44;6.40;;;2.38;;
46377;SDS011;32083;47.360;9.650;2024-03-17T14:00:14;3.50;;;2.10;;
46377;SDS011;32083;47.360;9.650;2024-03-17T14:02:44;5.65;;;2.50;;
46377;SDS011;32083;47.360;9.650;2024-03-17T14:05:18;4.72;;;2.13;;
46377;SDS011;32083;47.360;9.650;2024-03-17T14:07:48;3.13;;;2.17;;
46377;SDS011;32083;47.360;9.650;2024-03-17T14:10:18;7.68;;;2.63;;
46377;SDS011;32083;47.360;9.650;2024-03-17T14:12:45;5.47;;;2.22;;
46377;SDS011;32083;47.360;9.650;2024-03-17T14:15:12;4.65;;;2.10;;
46377;SDS011;32083;47.360;9.650;2024-03-17T14:17:42;5.43;;;2.35;;
46377;SDS011;32083;47.360;9.650;2024-03-17T14:20:10;4.72;;;2.55;;
46377;SDS011;32083;47.360;9.650;2024-03-17T14:22:39;6.93;;;2.85;;
46377;SDS011;32083;47.360;9.650;2024-03-17T14:25:15;3.10;;;2.42;;
46377;SDS011;32083;47.360;9.650;2024-03-17T14:27:46;4.55;;;2.50;;
46377;SDS011;32083;47.360;9.650;2024-03-17T14:30:14;3.22;;;2.10;;
46377;SDS011;32083;47.360;9.650;2024-03-17T14:32:42;4.82;;;2.40;;
46377;SDS011;32083;47.360;9.650;2024-03-17T14:35:15;4.50;;;2.33;;
46377;SDS011;32083;47.360;9.650;2024-03-17T14:37:42;5.13;;;2.75;;
46377;SDS011;32083;47.360;9.650;2024-03-17T14:40:13;4.97;;;2.58;;
46377;SDS011;32083;47.360;9.650;2024-03-17T14:42:49;4.93;;;3.00;;
46377;SDS011;32083;47.360;9.650;2024-03-17T14:45:16;6.93;;;3.42;;
46377;SDS011;32083;47.360;9.650;2024-03-17T14:47:43;3.67;;;2.28;;
46377;SDS011;32083;47.360;9.650;2024-03-17T14:50:09;7.43;;;2.38;;
46377;SDS011;32083;47.360;9.650;2024-03-17T14:52:41;6.40;;;2.35;;
46377;SDS011;32083;47.360;9.650;2024-03-17T14:55:08;12.18;;;8.18;;
46377;SDS011;32083;47.360;9.650;2024-03-17T14:57:38;6.75;;;4.68;;
46377;SDS011;32083;47.360;9.650;2024-03-17T15:00:07;8.65;;;7.05;;
46377;SDS011;32083;47.360;9.650;2024-03-17T15:02:45;6.65;;;2.72;;
46377;SDS011;32083;47.360;9.650;2024-03-17T15:05:20;6.38;;;2.95;;
46377;SDS011;32083;47.360;9.650;2024-03-17T15:07:52;3.38;;;2.47;;
46377;SDS011;32083;47.360;9.650;2024-03-17T15:10:20;4.75;;;2.42;;
46377;SDS011;32083;47.360;9.650;2024-03-17T15:12:48;7.07;;;4.38;;
46377;SDS011;32083;47.360;9.650;2024-03-17T15:15:15;5.90;;;2.42;;
46377;SDS011;32083;47.360;9.650;2024-03-17T15:17:42;2.90;;;1.75;;
46377;SDS011;32083;47.360;9.650;2024-03-17T15:20:11;6.40;;;3.92;;
46377;SDS011;32083;47.360;9.650;2024-03-17T15:22:50;5.90;;;3.42;;
46377;SDS011;32083;47.360;9.650;2024-03-17T15:25:17;6.00;;;2.78;;
46377;SDS011;32083;47.360;9.650;2024-03-17T15:27:45;9.57;;;4.22;;
46377;SDS011;32083;47.360;9.650;2024-03-17T15:30:15;6.55;;;4.75;;
46377;SDS011;32083;47.360;9.650;2024-03-17T15:32:46;7.60;;;4.18;;
46377;SDS011;32083;47.360;9.650;2024-03-17T15:35:13;5.70;;;3.38;;
46377;SDS011;32083;47.360;9.650;2024-03-17T15:37:40;4.93;;;3.65;;
46377;SDS011;32083;47.360;9.650;2024-03-17T15:40:07;6.82;;;3.10;;
46377;SDS011;32083;47.360;9.650;2024-03-17T15:42:42;7.85;;;3.67;;
46377;SDS011;32083;47.360;9.650;2024-03-17T15:45:09;4.65;;;3.15;;
46377;SDS011;32083;47.360;9.650;2024-03-17T15:47:35;6.03;;;3.00;;
46377;SDS011;32083;47.360;9.650;2024-03-17T15:50:02;6.75;;;3.72;;
46377;SDS011;32083;47.360;9.650;2024-03-17T15:52:28;5.00;;;2.67;;
46377;SDS011;32083;47.360;9.650;2024-03-17T15:54:58;7.95;;;2.80;;
46377;SDS011;32083;47.360;9.650;2024-03-17T15:57:24;3.97;;;2.42;;
46377;SDS011;32083;47.360;9.650;2024-03-17T15:59:51;5.07;;;2.63;;
46377;SDS011;32083;47.360;9.650;2024-03-17T16:02:19;3.58;;;2.30;;
46377;SDS011;32083;47.360;9.650;2024-03-17T16:04:46;5.80;;;3.10;;
46377;SDS011;32083;47.360;9.650;2024-03-17T16:07:16;8.05;;;3.90;;
46377;SDS011;32083;47.360;9.650;2024-03-17T16:09:43;6.03;;;3.15;;
46377;SDS011;32083;47.360;9.650;2024-03-17T16:12:09;6.35;;;3.08;;
46377;SDS011;32083;47.360;9.650;2024-03-17T16:14:35;8.60;;;3.20;;
46377;SDS011;32083;47.360;9.650;2024-03-17T16:17:03;4.93;;;2.63;;
46377;SDS011;32083;47.360;9.650;2024-03-17T16:19:34;8.10;;;4.40;;
46377;SDS011;32083;47.360;9.650;2024-03-17T16:22:01;9.35;;;4.35;;
46377;SDS011;32083;47.360;9.650;2024-03-17T16:24:31;8.60;;;3.70;;
46377;SDS011;32083;47.360;9.650;2024-03-17T16:27:01;6.32;;;3.30;;
46377;SDS011;32083;47.360;9.650;2024-03-17T16:29:29;7.35;;;4.45;;
46377;SDS011;32083;47.360;9.650;2024-03-17T16:31:57;4.40;;;3.55;;
46377;SDS011;32083;47.360;9.650;2024-03-17T16:34:24;5.38;;;3.53;;
46377;SDS011;32083;47.360;9.650;2024-03-17T16:36:53;4.90;;;3.20;;
46377;SDS011;32083;47.360;9.650;2024-03-17T16:39:20;10.00;;;5.35;;
46377;SDS011;32083;47.360;9.650;2024-03-17T16:41:50;9.25;;;5.30;;
46377;SDS011;32083;47.360;9.650;2024-03-17T16:49:18;6.78;;;5.43;;
46377;SDS011;32083;47.360;9.650;2024-03-17T16:51:49;6.43;;;4.00;;
46377;SDS011;32083;47.360;9.650;2024-03-17T16:54:17;8.38;;;5.50;;
46377;SDS011;32083;47.360;9.650;2024-03-17T16:56:44;7.10;;;4.75;;
46377;SDS011;32083;47.360;9.650;2024-03-17T16:59:11;7.35;;;5.15;;
46377;SDS011;32083;47.360;9.650;2024-03-17T17:01:38;8.80;;;5.53;;
46377;SDS011;32083;47.360;9.650;2024-03-17T17:04:06;10.73;;;5.90;;
46377;SDS011;32083;47.360;9.650;2024-03-17T17:06:33;8.35;;;6.75;;
46377;SDS011;32083;47.360;9.650;2024-03-17T17:09:00;11.20;;;5.55;;
46377;SDS011;32083;47.360;9.650;2024-03-17T17:11:29;12.93;;;4.70;;
46377;SDS011;32083;47.360;9.650;2024-03-17T17:13:57;9.95;;;4.38;;
46377;SDS011;32083;47.360;9.650;2024-03-17T17:16:23;10.18;;;5.05;;
46377;SDS011;32083;47.360;9.650;2024-03-17T17:21:21;9.95;;;6.38;;
46377;SDS011;32083;47.360;9.650;2024-03-17T17:23:48;11.45;;;4.95;;
46377;SDS011;32083;47.360;9.650;2024-03-17T17:26:18;9.43;;;5.32;;
46377;SDS011;32083;47.360;9.650;2024-03-17T17:28:47;7.53;;;4.47;;
46377;SDS011;32083;47.360;9.650;2024-03-17T17:31:26;10.18;;;6.50;;
46377;SDS011;32083;47.360;9.650;2024-03-17T17:33:53;10.45;;;6.18;;
46377;SDS011;32083;47.360;9.650;2024-03-17T17:36:21;9.07;;;5.57;;
46377;SDS011;32083;47.360;9.650;2024-03-17T17:38:47;10.10;;;4.97;;
46377;SDS011;32083;47.360;9.650;2024-03-17T17:41:14;7.03;;;5.88;;
46377;SDS011;32083;47.360;9.650;2024-03-17T17:43:40;9.30;;;6.40;;
46377;SDS011;32083;47.360;9.650;2024-03-17T17:46:14;7.20;;;5.47;;
46377;SDS011;32083;47.360;9.650;2024-03-17T17:48:42;6.97;;;4.00;;
46377;SDS011;32083;47.360;9.650;2024-03-17T17:51:13;3.97;;;2.60;;
46377;SDS011;32083;47.360;9.650;2024-03-17T17:53:41;6.45;;;3.40;;
46377;SDS011;32083;47.360;9.650;2024-03-17T17:56:11;4.47;;;2.90;;
46377;SDS011;32083;47.360;9.650;2024-03-17T17:58:39;4.43;;;3.00;;
46377;SDS011;32083;47.360;9.650;2024-03-17T18:01:06;4.57;;;2.10;;
46377;SDS011;32083;47.360;9.650;2024-03-17T18:03:33;3.50;;;1.75;;
46377;SDS011;32083;47.360;9.650;2024-03-17T18:06:00;3.55;;;1.85;;
46377;SDS011;32083;47.360;9.650;2024-03-17T18:08:29;4.10;;;1.85;;
46377;SDS011;32083;47.360;9.650;2024-03-17T18:10:56;2.50;;;1.50;;
46377;SDS011;32083;47.360;9.650;2024-03-17T18:13:22;4.20;;;1.55;;
46377;SDS011;32083;47.360;9.650;2024-03-17T18:18:27;2.20;;;2.00;;
46377;SDS011;32083;47.360;9.650;2024-03-17T18:20:54;4.07;;;2.10;;
46377;SDS011;32083;47.360;9.650;2024-03-17T18:23:22;3.85;;;2.17;;
46377;SDS011;32083;47.360;9.650;2024-03-17T18:25:48;2.00;;;1.48;;
46377;SDS011;32083;47.360;9.650;2024-03-17T18:28:15;3.60;;;1.67;;
46377;SDS011;32083;47.360;9.650;2024-03-17T18:30:42;2.33;;;1.60;;
46377;SDS011;32083;47.360;9.650;2024-03-17T18:33:08;2.35;;;1.80;;
46377;SDS011;32083;47.360;9.650;2024-03-17T18:35:34;4.35;;;1.95;;
46377;SDS011;32083;47.360;9.650;2024-03-17T18:38:01;3.42;;;2.00;;
46377;SDS011;32083;47.360;9.650;2024-03-17T18:40:27;3.05;;;1.90;;
46377;SDS011;32083;47.360;9.650;2024-03-17T18:42:53;4.30;;;2.20;;
46377;SDS011;32083;47.360;9.650;2024-03-17T18:45:19;3.65;;;1.95;;
46377;SDS011;32083;47.360;9.650;2024-03-17T18:47:45;3.75;;;2.10;;
46377;SDS011;32083;47.360;9.650;2024-03-17T18:50:12;3.05;;;2.10;;
46377;SDS011;32083;47.360;9.650;2024-03-17T18:52:45;4.05;;;3.60;;
46377;SDS011;32083;47.360;9.650;2024-03-17T18:55:15;4.70;;;2.83;;
46377;SDS011;32083;47.360;9.650;2024-03-17T18:57:43;4.10;;;2.90;;
46377;SDS011;32083;47.360;9.650;2024-03-17T19:00:10;3.95;;;1.88;;
46377;SDS011;32083;47.360;9.650;2024-03-17T19:02:49;3.15;;;1.60;;
46377;SDS011;32083;47.360;9.650;2024-03-17T19:05:18;4.30;;;2.00;;
46377;SDS011;32083;47.360;9.650;2024-03-17T19:07:45;3.65;;;3.03;;
46377;SDS011;32083;47.360;9.650;2024-03-17T19:10:14;5.72;;;4.25;;
46377;SDS011;32083;47.360;9.650;2024-03-17T19:12:45;7.22;;;2.55;;
46377;SDS011;32083;47.360;9.650;2024-03-17T19:15:12;3.65;;;3.00;;
46377;SDS011;32083;47.360;9.650;2024-03-17T19:17:38;4.10;;;2.25;;
46377;SDS011;32083;47.360;9.650;2024-03-17T19:20:05;5.30;;;2.97;;
46377;SDS011;32083;47.360;9.650;2024-03-17T19:22:39;4.95;;;2.30;;
46377;SDS011;32083;47.360;9.650;2024-03-17T19:25:06;3.38;;;2.28;;
46377;SDS011;32083;47.360;9.650;2024-03-17T19:27:33;4.22;;;2.30;;
46377;SDS011;32083;47.360;9.650;2024-03-17T19:29:59;2.78;;;2.03;;
46377;SDS011;32083;47.360;9.650;2024-03-17T19:32:25;3.00;;;2.20;;
46377;SDS011;32083;47.360;9.650;2024-03-17T19:34:51;4.63;;;2.17;;
46377;SDS011;32083;47.360;9.650;2024-03-17T19:37:18;3.78;;;2.10;;
46377;SDS011;32083;47.360;9.650;2024-03-17T19:39:47;3.78;;;2.30;;
46377;SDS011;32083;47.360;9.650;2024-03-17T19:42:13;4.65;;;2.50;;
46377;SDS011;32083;47.360;9.650;2024-03-17T19:44:41;4.50;;;2.10;;
46377;SDS011;32083;47.360;9.650;2024-03-17T19:47:09;5.50;;;3.05;;
46377;SDS011;32083;47.360;9.650;2024-03-17T19:49:35;3.88;;;2.63;;
46377;SDS011;32083;47.360;9.650;2024-03-17T19:52:01;6.70;;;2.88;;
46377;SDS011;32083;47.360;9.650;2024-03-17T19:54:27;3.65;;;3.00;;
46377;SDS011;32083;47.360;9.650;2024-03-17T19:56:53;4.63;;;2.08;;
46377;SDS011;32083;47.360;9.650;2024-03-17T19:59:20;3.25;;;1.60;;
46377;SDS011;32083;47.360;9.650;2024-03-17T20:01:46;2.63;;;1.70;;
46377;SDS011;32083;47.360;9.650;2024-03-17T20:04:12;2.70;;;1.80;;
46377;SDS011;32083;47.360;9.650;2024-03-17T20:06:38;2.70;;;1.70;;
46377;SDS011;32083;47.360;9.650;2024-03-17T20:09:05;2.88;;;2.10;;
46377;SDS011;32083;47.360;9.650;2024-03-17T20:11:32;3.08;;;1.90;;
46377;SDS011;32083;47.360;9.650;2024-03-17T20:13:58;3.05;;;1.40;;
46377;SDS011;32083;47.360;9.650;2024-03-17T20:16:25;2.08;;;1.60;;
46377;SDS011;32083;47.360;9.650;2024-03-17T20:18:53;3.17;;;1.33;;
46377;SDS011;32083;47.360;9.650;2024-03-17T20:21:23;4.07;;;1.48;;
46377;SDS011;32083;47.360;9.650;2024-03-17T20:23:50;1.92;;;1.40;;
46377;SDS011;32083;47.360;9.650;2024-03-17T20:26:17;3.20;;;1.40;;
46377;SDS011;32083;47.360;9.650;2024-03-17T20:28:44;1.95;;;1.10;;
46377;SDS011;32083;47.360;9.650;2024-03-17T20:33:47;1.60;;;1.23;;
46377;SDS011;32083;47.360;9.650;2024-03-17T20:36:15;5.57;;;1.60;;
46377;SDS011;32083;47.360;9.650;2024-03-17T20:38:45;2.03;;;1.10;;
46377;SDS011;32083;47.360;9.650;2024-03-17T20:41:15;2.45;;;1.10;;
46377;SDS011;32083;47.360;9.650;2024-03-17T20:43:41;2.20;;;0.82;;
46377;SDS011;32083;47.360;9.650;2024-03-17T20:46:08;3.03;;;1.27;;
46377;SDS011;32083;47.360;9.650;2024-03-17T20:48:34;3.45;;;1.17;;
46377;SDS011;32083;47.360;9.650;2024-03-17T20:51:01;2.30;;;1.05;;
46377;SDS011;32083;47.360;9.650;2024-03-17T20:53:27;2.40;;;1.10;;